Latest Weather Observations for Keith West

IDS60801

Issued at 11:01 pm CST Wednesday 24 May 2017 (issued every 30 minutes, with the page automatically refreshed every 10 minutes)

About weather observations | Map of weather stations | Latest weather observations for SA | Other Formats
Station Details ID: 025557 Name: MUNKORA Lat: -36.11 Lon: 140.33 Height: 27.0 m
Data from the previous 72 hours. | See also: Recent months at Keith West
Date/Time
CST
Temp
°C
App
Temp
°C
Dew
Point
°C
Rel
Hum
%
Delta-T
°C
Wind Press
QNH
hPa
Press
MSL
hPa
Rain since
9am
mm
Dir  Spd
km/h
Gust
km/h
Spd
kts
Gust
kts
24/11:00pm 12.9 12.3 11.6 92 0.7 NNE 6 7 3 4 1020.8 1020.8 0.2
24/10:30pm 12.8 11.9 11.5 92 0.7 N 7 9 4 5 1020.9 1020.9 0.2
24/10:00pm 12.8 11.6 11.5 92 0.7 N 9 11 5 6 1021.0 1021.0 0.2
24/09:30pm 12.6 12.2 11.2 91 0.7 NNE 4 6 2 3 1021.0 1021.0 0.2
24/09:00pm 12.7 13.1 11.4 92 0.7 CALM 0 0 0 0 1021.1 1021.1 0.2
24/08:30pm 12.7 12.0 11.3 91 0.7 N 6 7 3 4 1021.4 1021.4 0.2
24/08:00pm 12.9 13.4 11.5 91 0.7 CALM 0 0 0 0 1021.3 1021.3 0.2
24/07:30pm 13.0 13.5 11.7 92 0.7 CALM 0 0 0 0 1021.3 1021.3 0.2
24/07:00pm 13.1 13.6 11.7 91 0.7 CALM 0 4 0 2 1021.1 1021.1 0.2
24/06:30pm 13.1 12.3 11.8 92 0.7 WNW 7 9 4 5 1021.0 1021.0 0.2
24/06:00pm 12.9 11.7 11.6 92 0.7 NW 9 11 5 6 1020.8 1020.8 0.2
24/05:30pm 12.9 12.1 11.1 89 0.9 W 6 7 3 4 1020.7 1020.7 0.2
24/05:00pm 13.8 12.6 11.7 87 1.1 W 9 11 5 6 1020.6 1020.6 0.2
24/04:30pm 14.1 12.4 12.5 90 0.9 WSW 13 17 7 9 1020.5 1020.5 0.2
24/04:00pm 15.3 14.2 12.1 81 1.7 WNW 9 15 5 8 1020.2 1020.2 0.2
24/03:30pm 15.9 12.7 11.1 73 2.6 W 19 26 10 14 1019.9 1019.9 0.2
24/03:00pm 16.0 12.4 10.7 71 2.8 W 20 28 11 15 1019.6 1019.6 0.2
24/02:30pm 16.3 12.8 10.2 67 3.2 WSW 19 24 10 13 1019.4 1019.4 0.2
24/02:00pm 16.2 12.0 9.8 66 3.3 W 22 28 12 15 1019.2 1019.2 0.2
24/01:30pm 17.2 13.8 10.6 65 3.5 WSW 19 24 10 13 1019.2 1019.2 0.2
24/01:00pm 17.1 13.2 9.5 61 4.0 WSW 20 32 11 17 1019.0 1019.0 0.2
24/12:30pm 17.7 14.1 10.6 63 3.8 WSW 20 32 11 17 1019.2 1019.2 0.0
24/12:00pm 16.5 13.2 10.8 69 3.0 WSW 19 24 10 13 1019.5 1019.5 0.0
24/11:30am 15.8 11.9 10.8 72 2.7 W 22 35 12 19 1019.7 1019.7 0.0
24/11:00am 16.6 13.0 10.5 67 3.2 W 20 28 11 15 1019.6 1019.6 0.0
24/10:30am 15.9 13.6 11.7 76 2.3 W 15 20 8 11 1019.6 1019.6 0.0
24/10:00am 14.8 12.0 11.4 80 1.8 W 17 24 9 13 1019.6 1019.6 0.0
24/09:30am 14.4 13.1 11.4 82 1.6 WNW 9 13 5 7 1019.3 1019.3 0.0
24/09:00am 12.8 11.8 10.9 88 1.0 NW 7 9 4 5 1019.1 1019.1 2.2
24/08:30am 12.1 10.9 10.3 89 0.9 WNW 7 11 4 6 1018.8 1018.8 2.2
24/08:00am 10.4 9.0 9.0 91 0.7 WNW 6 7 3 4 1018.4 1018.4 2.2
24/07:30am 11.1 9.4 10.0 93 0.6 W 9 15 5 8 1017.9 1017.9 2.2
24/07:00am 9.5 7.9 8.6 94 0.4 WNW 7 11 4 6 1017.7 1017.7 2.2
24/06:30am 9.0 6.4 7.9 93 0.5 NW 11 11 6 6 1017.3 1017.3 2.2
24/06:00am 10.4 8.2 9.5 94 0.4 WNW 11 15 6 8 1017.0 1017.0 2.2
24/05:30am 10.3 7.7 9.2 93 0.5 NW 13 15 7 8 1016.8 1016.8 2.2
24/05:00am 10.6 8.1 9.7 94 0.5 NW 13 17 7 9 1016.3 1016.3 2.2
24/04:30am 10.6 8.0 9.5 93 0.6 NW 13 17 7 9 1015.7 1015.7 2.2
24/04:00am 10.6 8.4 9.4 92 0.6 NW 11 13 6 7 1015.7 1015.7 2.2
24/03:30am 12.0 9.5 10.9 93 0.6 WNW 15 19 8 10 1015.5 1015.5 2.2
24/03:00am 12.3 9.4 11.0 92 0.7 WNW 17 24 9 13 1015.6 1015.6 1.2
24/02:30am 11.9 8.9 10.6 92 0.7 NW 17 22 9 12 1015.0 1015.0 0.8
24/02:00am 11.6 8.5 10.2 91 0.7 NW 17 20 9 11 1014.9 1014.9 0.8
24/01:30am 11.6 8.4 10.0 90 0.8 NW 17 20 9 11 1014.9 1014.9 0.6
24/01:00am 11.6 8.4 10.0 90 0.8 NW 17 22 9 12 1014.9 1014.9 0.6
24/12:30am 12.2 8.2 10.3 88 1.0 NW 22 32 12 17 1014.8 1014.8 0.6
24/12:00am 11.9 8.2 10.1 89 0.9 NNW 20 24 11 13 1014.8 1014.8 0.6
 
Date/Time
CST
Temp
°C
App
Temp
°C
Dew
Point
°C
Rel
Hum
%
Delta-T
°C
Wind Press
QNH
hPa
Press
MSL
hPa
Rain since
9am
mm
Dir  Spd
km/h
Gust
km/h
Spd
kts
Gust
kts
23/11:30pm 11.5 7.9 9.9 90 0.8 NNW 19 22 10 12 1015.0 1015.0 0.6
23/11:00pm 11.6 8.0 10.0 90 0.8 NNW 19 24 10 13 1015.2 1015.2 0.6
23/10:30pm 11.5 8.3 9.8 89 0.9 NNW 17 20 9 11 1015.2 1015.2 0.6
23/10:00pm 11.8 8.1 10.0 89 0.9 NNW 20 24 11 13 1015.3 1015.3 0.6
23/09:30pm 11.5 8.2 9.6 88 1.0 NNW 17 20 9 11 1015.4 1015.4 0.6
23/09:00pm 11.8 8.2 9.7 87 1.1 NNW 19 22 10 12 1015.3 1015.3 0.6
23/08:30pm 11.9 8.7 9.8 87 1.1 NNW 17 22 9 12 1015.4 1015.4 0.6
23/08:00pm 12.5 8.3 9.7 83 1.4 NW 22 28 12 15 1015.3 1015.3 0.6
23/07:30pm 13.3 9.6 10.1 81 1.7 NW 20 28 11 15 1015.2 1015.2 0.6
23/07:00pm 14.1 10.1 10.3 78 2.0 NW 22 30 12 16 1015.2 1015.2 0.2
23/06:30pm 14.7 10.1 9.5 71 2.7 NW 24 33 13 18 1014.8 1014.8 0.0
23/06:13pm 15.2 11.2 9.1 67 3.1 NW 20 41 11 22 1014.4 1014.4 0.0
23/06:00pm 14.5 12.3 9.5 72 2.6 NW 11 17 6 9 1014.1 1014.1 0.0
23/05:30pm 13.5 11.3 9.2 75 2.2 NW 11 11 6 6 1014.1 1014.1 0.0
23/05:00pm 14.9 11.9 9.1 68 3.0 NW 15 17 8 9 1013.9 1013.9 0.0
23/04:30pm 15.7 13.6 9.6 67 3.2 NNW 11 13 6 7 1013.7 1013.7 0.0
23/04:00pm 16.2 13.2 9.2 63 3.6 NW 15 17 8 9 1013.6 1013.6 0.0
23/03:30pm 17.7 14.0 9.3 58 4.4 NW 19 30 10 16 1013.6 1013.6 0.0
23/03:00pm 17.1 12.0 7.7 54 4.7 NW 24 33 13 18 1013.9 1013.9 0.0
23/02:30pm 18.2 13.5 10.6 61 4.1 NW 26 33 14 18 1013.8 1013.8 0.0
23/02:00pm 17.4 14.2 11.4 68 3.3 NW 19 26 10 14 1014.0 1014.0 0.0
23/01:30pm 18.3 14.0 10.9 62 4.0 NNW 24 32 13 17 1014.3 1014.3 0.0
23/01:00pm 17.1 13.7 11.4 69 3.1 NNW 20 28 11 15 1014.7 1014.7 0.0
23/12:30pm 17.8 14.4 11.4 66 3.5 NNW 20 28 11 15 1015.1 1015.1 0.0
23/12:00pm 17.9 14.9 12.6 71 3.0 NNW 20 26 11 14 1015.5 1015.5 0.0
23/11:30am 17.1 14.1 12.0 72 2.8 NNW 19 26 10 14 1016.2 1016.2 0.0
23/11:00am 16.6 14.7 12.9 79 2.1 NNW 15 19 8 10 1016.6 1016.6 0.0
23/10:30am 15.8 14.4 13.3 85 1.4 N 13 19 7 10 1016.9 1016.9 0.0
23/10:00am 14.3 13.3 12.2 87 1.1 N 9 13 5 7 1017.3 1017.3 0.0
23/09:30am 13.3 12.5 11.7 90 0.9 NNE 7 11 4 6 1016.9 1016.9 0.0
23/09:00am 11.9 10.0 10.6 92 0.7 NNE 11 15 6 8 1016.9 1016.9 3.2
23/08:30am 12.0 10.7 11.2 95 0.4 NNE 9 11 5 6 1017.1 1017.1 3.2
23/08:00am 10.1 8.6 9.3 95 0.4 N 7 7 4 4 1017.3 1017.3 3.2
23/07:30am 8.4 6.5 7.5 94 0.4 N 7 9 4 5 1017.1 1017.1 3.2
23/07:00am 8.8 7.0 7.9 94 0.4 NNE 7 9 4 5 1016.6 1016.6 3.2
23/06:30am 8.4 6.5 7.5 94 0.4 N 7 9 4 5 1016.5 1016.5 3.2
23/06:00am 7.8 6.3 6.7 93 0.5 N 4 6 2 3 1015.9 1015.9 3.2
23/05:30am 8.6 7.3 7.5 93 0.5 N 4 6 2 3 1015.9 1015.9 3.2
23/05:00am 9.5 8.0 8.4 93 0.5 NW 6 7 3 4 1015.7 1015.7 3.2
23/04:30am 9.9 9.3 8.8 93 0.5 N 2 6 1 3 1015.6 1015.6 3.2
23/04:00am 10.4 8.9 9.3 93 0.5 NNW 7 9 4 5 1015.6 1015.6 3.2
23/03:30am 10.5 9.2 9.3 92 0.6 N 6 7 3 4 1015.5 1015.5 3.2
23/03:00am 10.6 9.2 9.4 92 0.6 NNW 7 9 4 5 1015.6 1015.6 3.2
23/02:30am 11.5 9.5 10.1 91 0.7 NNW 11 13 6 7 1015.4 1015.4 3.2
23/02:00am 11.9 10.0 10.5 91 0.7 N 11 15 6 8 1015.6 1015.6 3.2
23/01:30am 12.4 10.5 10.6 89 0.9 NNW 11 13 6 7 1015.6 1015.6 3.0
23/01:00am 13.3 11.3 11.4 88 1.0 N 13 17 7 9 1015.3 1015.3 3.0
23/12:30am 13.8 11.5 11.7 87 1.1 N 15 20 8 11 1015.8 1015.8 3.0
23/12:00am 13.8 11.0 11.3 85 1.3 N 17 22 9 12 1015.9 1015.9 3.0
 
Date/Time
CST
Temp
°C
App
Temp
°C
Dew
Point
°C
Rel
Hum
%
Delta-T
°C
Wind Press
QNH
hPa
Press
MSL
hPa
Rain since
9am
mm
Dir  Spd
km/h
Gust
km/h
Spd
kts
Gust
kts
22/11:30pm 13.4 11.7 11.1 86 1.2 NNE 11 13 6 7 1015.7 1015.7 2.8
22/11:00pm 14.2 11.6 10.8 80 1.8 NNW 15 20 8 11 1015.7 1015.7 2.2
22/10:30pm 14.3 10.4 10.9 80 1.8 WNW 22 33 12 18 1016.5 1016.5 1.8
22/10:00pm 14.8 12.4 11.4 80 1.8 SW 15 19 8 10 1016.0 1016.0 0.4
22/09:30pm 15.2 13.9 11.2 77 2.1 NW 9 13 5 7 1015.7 1015.7 0.2
22/09:00pm 15.8 13.7 11.0 73 2.6 WNW 13 15 7 8 1015.5 1015.5 0.2
22/08:30pm 17.0 13.3 10.1 64 3.6 N 20 28 11 15 1015.0 1015.0 0.0
22/08:00pm 16.8 13.7 10.4 66 3.4 N 17 24 9 13 1014.8 1014.8 0.0
22/07:30pm 16.8 14.8 10.2 65 3.5 N 11 13 6 7 1014.5 1014.5 0.0
22/07:00pm 16.4 14.9 10.5 68 3.1 NNW 9 15 5 8 1015.0 1015.0 0.0
22/06:30pm 17.2 14.5 10.3 64 3.7 NW 15 19 8 10 1014.5 1014.5 0.0
22/06:00pm 17.3 15.9 9.7 61 4.0 N 7 15 4 8 1013.6 1013.6 0.0
22/05:30pm 18.8 16.0 8.7 52 5.3 NNE 13 19 7 10 1013.1 1013.1 0.0
22/05:00pm 19.2 15.6 8.2 49 5.7 NNE 17 22 9 12 1013.1 1013.1 0.0
22/04:30pm 19.4 16.1 8.1 48 5.8 NNE 15 20 8 11 1012.2 1012.2 0.0
22/04:00pm 18.8 16.3 9.6 55 4.9 N 13 19 7 10 1013.1 1013.1 0.0
22/03:30pm 19.2 16.5 10.2 56 4.8 N 15 19 8 10 1013.0 1013.0 0.0
22/03:00pm 19.3 16.5 10.0 55 5.0 N 15 22 8 12 1013.3 1013.3 0.0
22/02:30pm 20.0 16.5 10.1 53 5.3 N 19 24 10 13 1013.5 1013.5 0.0
22/02:00pm 19.3 14.4 10.0 55 5.0 N 26 39 14 21 1013.7 1013.7 0.0
22/01:30pm 20.6 14.8 10.7 53 5.4 N 32 48 17 26 1014.3 1014.3 0.0
22/01:00pm 20.2 14.3 9.2 49 5.8 N 30 43 16 23 1014.9 1014.9 0.0
22/12:30pm 19.5 13.0 8.8 50 5.6 N 33 44 18 24 1014.3 1014.3 0.0
22/12:00pm 18.5 13.0 9.0 54 5.0 N 28 43 15 23 1015.3 1015.3 0.0
22/11:30am 19.3 12.9 9.5 53 5.2 N 33 50 18 27 1016.0 1016.0 0.0
22/11:00am 18.8 13.3 9.0 53 5.1 N 28 35 15 19 1016.3 1016.3 0.0
22/10:30am 18.6 13.7 8.6 52 5.2 N 24 32 13 17 1016.8 1016.8 0.0
22/10:00am 18.1 13.5 9.5 57 4.5 N 24 37 13 20 1016.8 1016.8 0.0
22/09:30am 16.5 11.7 8.7 60 4.0 NNE 24 35 13 19 1016.2 1016.2 0.0
22/09:00am 14.5 10.2 8.0 65 3.2 NNE 20 28 11 15 1016.8 1016.8 0.0
22/08:30am 13.5 8.7 7.3 66 3.0 NNE 22 33 12 18 1016.9 1016.9 0.0
22/08:00am 12.6 7.4 7.1 69 2.7 NNE 24 30 13 16 1016.7 1016.7 0.0
22/07:30am 12.1 7.6 6.8 70 2.5 NNE 20 28 11 15 1016.6 1016.6 0.0
22/07:00am 11.6 7.2 6.5 71 2.4 NNE 19 24 10 13 1016.7 1016.7 0.0
22/06:30am 11.7 8.4 6.6 71 2.4 NNE 13 19 7 10 1016.6 1016.6 0.0
22/06:00am 11.1 7.1 6.5 73 2.2 NNE 17 24 9 13 1016.5 1016.5 0.0
22/05:30am 11.4 7.4 6.7 73 2.2 NNE 17 22 9 12 1016.5 1016.5 0.0
22/05:00am 11.7 7.4 6.8 72 2.3 NNE 19 28 10 15 1016.5 1016.5 0.0
22/04:30am 11.4 7.8 6.9 74 2.1 NNE 15 20 8 11 1016.7 1016.7 0.0
22/04:00am 11.9 8.0 7.0 72 2.3 NNE 17 22 9 12 1016.9 1016.9 0.0
22/03:30am 11.5 8.0 7.0 74 2.1 NNE 15 19 8 10 1016.9 1016.9 0.0
22/03:00am 12.0 8.1 7.1 72 2.4 NNE 17 20 9 11 1017.1 1017.1 0.0
22/02:30am 12.2 8.7 7.3 72 2.4 NNE 15 20 8 11 1017.2 1017.2 0.0
22/02:00am 12.2 8.7 7.3 72 2.4 NNE 15 19 8 10 1017.2 1017.2 0.0
22/01:30am 11.8 8.7 7.3 74 2.2 NNE 13 17 7 9 1017.1 1017.1 0.0
22/01:00am 12.2 8.7 7.3 72 2.4 NE 15 19 8 10 1017.2 1017.2 0.0
22/12:30am 12.4 8.5 7.3 71 2.5 NE 17 22 9 12 1017.3 1017.3 0.0
22/12:00am 12.2 8.3 7.1 71 2.4 NE 17 20 9 11 1017.6 1017.6 0.0
 
Date/Time
CST
Temp
°C
App
Temp
°C
Dew
Point
°C
Rel
Hum
%
Delta-T
°C
Wind Press
QNH
hPa
Press
MSL
hPa
Rain since
9am
mm
Dir  Spd
km/h
Gust
km/h
Spd
kts
Gust
kts
21/11:30pm 12.4 8.5 7.3 71 2.5 NE 17 22 9 12 1017.7 1017.7 0.0

Other Formats:

Comma delimited format used in spreadsheet applications
http://www.bom.gov.au/fwo/IDS60801/IDS60801.95815.axf

JavaScript Object Notation format (JSON) in row-major order
http://www.bom.gov.au/fwo/IDS60801/IDS60801.95815.json